Utopia, Texas
Current Conditions -  °F | °C
As of 2:51 AM on Monday 20 Oct 2014 (Local Time) from KHDO Reporting Station
Few Clouds Few Clouds  
Wind Chill: 65°   Ceiling: Unl
Heat Index: 65°   Visibility: 10mi
Dew Point: 63°   Wind: 7mph
Humidity: 93%   Direction: 110°ESE
Pressure: 30.04"   Gusts: NA
Location:  29.62°N, 99.53°W
Report Text: KHDO 200751Z AUTO 11006KT 10SM FEW044 18/17 A3004 RMK AO2 SLP157 T01830172
Loading
Personal Weather Stations






























Interactive Weather Map
Tropical Storm Tracking
New forecast layout! Learn more

10-Day Weather Forecast

Advertisements
Track Severe Weather on mobile